sensor_id;sensor_type;location;lat;lon;timestamp;P1;durP1;ratioP1;P2;durP2;ratioP2
10920;SDS011;5513;50.580;8.818;2023-06-22T00:01:03;7.78;;;7.07;;
10920;SDS011;5513;50.580;8.818;2023-06-22T00:03:33;7.40;;;6.70;;
10920;SDS011;5513;50.580;8.818;2023-06-22T00:06:03;7.15;;;6.55;;
10920;SDS011;5513;50.580;8.818;2023-06-22T00:08:32;8.98;;;7.07;;
10920;SDS011;5513;50.580;8.818;2023-06-22T00:11:00;7.00;;;6.40;;
10920;SDS011;5513;50.580;8.818;2023-06-22T00:13:30;6.93;;;6.22;;
10920;SDS011;5513;50.580;8.818;2023-06-22T00:15:58;7.50;;;6.78;;
10920;SDS011;5513;50.580;8.818;2023-06-22T00:18:28;7.95;;;7.13;;
10920;SDS011;5513;50.580;8.818;2023-06-22T00:20:58;8.60;;;6.60;;
10920;SDS011;5513;50.580;8.818;2023-06-22T00:23:28;9.93;;;6.85;;
10920;SDS011;5513;50.580;8.818;2023-06-22T00:26:01;7.90;;;7.10;;
10920;SDS011;5513;50.580;8.818;2023-06-22T00:28:32;7.45;;;6.75;;
10920;SDS011;5513;50.580;8.818;2023-06-22T00:31:00;13.07;;;7.10;;
10920;SDS011;5513;50.580;8.818;2023-06-22T00:33:28;7.90;;;7.03;;
10920;SDS011;5513;50.580;8.818;2023-06-22T00:35:56;8.30;;;7.50;;
10920;SDS011;5513;50.580;8.818;2023-06-22T00:38:25;7.93;;;6.88;;
10920;SDS011;5513;50.580;8.818;2023-06-22T00:40:54;9.75;;;7.47;;
10920;SDS011;5513;50.580;8.818;2023-06-22T00:43:22;7.75;;;6.90;;
10920;SDS011;5513;50.580;8.818;2023-06-22T00:45:52;7.93;;;6.88;;
10920;SDS011;5513;50.580;8.818;2023-06-22T00:48:24;7.40;;;6.57;;
10920;SDS011;5513;50.580;8.818;2023-06-22T00:50:53;8.48;;;7.68;;
10920;SDS011;5513;50.580;8.818;2023-06-22T00:53:22;8.32;;;7.53;;
10920;SDS011;5513;50.580;8.818;2023-06-22T00:55:51;7.38;;;6.68;;
10920;SDS011;5513;50.580;8.818;2023-06-22T00:58:20;7.45;;;6.47;;
10920;SDS011;5513;50.580;8.818;2023-06-22T01:00:49;7.38;;;6.45;;
10920;SDS011;5513;50.580;8.818;2023-06-22T01:03:19;7.90;;;7.07;;
10920;SDS011;5513;50.580;8.818;2023-06-22T01:05:47;8.32;;;7.05;;
10920;SDS011;5513;50.580;8.818;2023-06-22T01:08:23;7.65;;;6.85;;
10920;SDS011;5513;50.580;8.818;2023-06-22T01:10:59;8.48;;;7.40;;
10920;SDS011;5513;50.580;8.818;2023-06-22T01:13:44;8.05;;;7.22;;
10920;SDS011;5513;50.580;8.818;2023-06-22T01:16:20;8.00;;;7.10;;
10920;SDS011;5513;50.580;8.818;2023-06-22T01:18:55;8.30;;;7.38;;
10920;SDS011;5513;50.580;8.818;2023-06-22T01:21:28;7.93;;;7.10;;
10920;SDS011;5513;50.580;8.818;2023-06-22T01:24:02;8.90;;;7.57;;
10920;SDS011;5513;50.580;8.818;2023-06-22T01:26:46;8.23;;;7.50;;
10920;SDS011;5513;50.580;8.818;2023-06-22T01:29:27;9.40;;;8.13;;
10920;SDS011;5513;50.580;8.818;2023-06-22T01:31:57;9.13;;;7.95;;
10920;SDS011;5513;50.580;8.818;2023-06-22T01:34:27;9.57;;;8.63;;
10920;SDS011;5513;50.580;8.818;2023-06-22T01:36:56;11.52;;;8.40;;
10920;SDS011;5513;50.580;8.818;2023-06-22T01:39:28;10.63;;;9.50;;
10920;SDS011;5513;50.580;8.818;2023-06-22T01:42:00;11.05;;;9.45;;
10920;SDS011;5513;50.580;8.818;2023-06-22T01:44:31;10.77;;;9.05;;
10920;SDS011;5513;50.580;8.818;2023-06-22T01:47:02;10.68;;;9.60;;
10920;SDS011;5513;50.580;8.818;2023-06-22T01:49:31;10.20;;;9.20;;
10920;SDS011;5513;50.580;8.818;2023-06-22T01:52:00;10.45;;;9.32;;
10920;SDS011;5513;50.580;8.818;2023-06-22T01:54:29;10.75;;;9.60;;
10920;SDS011;5513;50.580;8.818;2023-06-22T01:56:57;10.60;;;9.50;;
10920;SDS011;5513;50.580;8.818;2023-06-22T01:59:29;11.32;;;9.60;;
10920;SDS011;5513;50.580;8.818;2023-06-22T02:02:06;11.68;;;10.30;;
10920;SDS011;5513;50.580;8.818;2023-06-22T02:04:37;12.20;;;9.70;;
10920;SDS011;5513;50.580;8.818;2023-06-22T02:07:15;11.43;;;10.23;;
10920;SDS011;5513;50.580;8.818;2023-06-22T02:09:49;10.73;;;9.57;;
10920;SDS011;5513;50.580;8.818;2023-06-22T02:12:21;11.57;;;9.48;;
10920;SDS011;5513;50.580;8.818;2023-06-22T02:14:52;12.15;;;9.00;;
10920;SDS011;5513;50.580;8.818;2023-06-22T02:17:21;10.95;;;9.80;;
10920;SDS011;5513;50.580;8.818;2023-06-22T02:19:52;10.63;;;9.48;;
10920;SDS011;5513;50.580;8.818;2023-06-22T02:22:20;10.95;;;9.85;;
10920;SDS011;5513;50.580;8.818;2023-06-22T02:24:50;11.57;;;9.80;;
10920;SDS011;5513;50.580;8.818;2023-06-22T02:27:19;11.35;;;9.55;;
10920;SDS011;5513;50.580;8.818;2023-06-22T02:29:48;11.20;;;9.98;;
10920;SDS011;5513;50.580;8.818;2023-06-22T02:32:18;11.40;;;10.25;;
10920;SDS011;5513;50.580;8.818;2023-06-22T02:34:47;10.70;;;9.70;;
10920;SDS011;5513;50.580;8.818;2023-06-22T02:37:17;11.02;;;9.93;;
10920;SDS011;5513;50.580;8.818;2023-06-22T02:39:46;14.55;;;10.32;;
10920;SDS011;5513;50.580;8.818;2023-06-22T02:42:14;11.30;;;10.15;;
10920;SDS011;5513;50.580;8.818;2023-06-22T02:44:47;13.38;;;10.35;;
10920;SDS011;5513;50.580;8.818;2023-06-22T02:47:18;10.60;;;9.50;;
10920;SDS011;5513;50.580;8.818;2023-06-22T02:49:46;11.43;;;10.23;;
10920;SDS011;5513;50.580;8.818;2023-06-22T02:52:14;11.20;;;10.15;;
10920;SDS011;5513;50.580;8.818;2023-06-22T02:54:43;13.98;;;10.25;;
10920;SDS011;5513;50.580;8.818;2023-06-22T02:57:12;11.55;;;10.20;;
10920;SDS011;5513;50.580;8.818;2023-06-22T02:59:41;11.90;;;10.80;;
10920;SDS011;5513;50.580;8.818;2023-06-22T03:02:09;11.63;;;10.40;;
10920;SDS011;5513;50.580;8.818;2023-06-22T03:04:40;11.43;;;10.33;;
10920;SDS011;5513;50.580;8.818;2023-06-22T03:07:09;11.30;;;10.25;;
10920;SDS011;5513;50.580;8.818;2023-06-22T03:09:40;12.00;;;10.85;;
10920;SDS011;5513;50.580;8.818;2023-06-22T03:12:09;11.55;;;10.43;;
10920;SDS011;5513;50.580;8.818;2023-06-22T03:14:39;11.45;;;10.15;;
10920;SDS011;5513;50.580;8.818;2023-06-22T03:17:08;12.02;;;10.20;;
10920;SDS011;5513;50.580;8.818;2023-06-22T03:19:39;11.77;;;10.57;;
10920;SDS011;5513;50.580;8.818;2023-06-22T03:22:09;11.82;;;10.63;;
10920;SDS011;5513;50.580;8.818;2023-06-22T03:24:39;11.77;;;10.55;;
10920;SDS011;5513;50.580;8.818;2023-06-22T03:27:09;12.77;;;11.40;;
10920;SDS011;5513;50.580;8.818;2023-06-22T03:29:38;12.93;;;11.50;;
10920;SDS011;5513;50.580;8.818;2023-06-22T03:32:06;12.75;;;11.20;;
10920;SDS011;5513;50.580;8.818;2023-06-22T03:34:35;13.68;;;12.30;;
10920;SDS011;5513;50.580;8.818;2023-06-22T03:37:06;12.35;;;11.15;;
10920;SDS011;5513;50.580;8.818;2023-06-22T03:39:34;14.57;;;10.98;;
10920;SDS011;5513;50.580;8.818;2023-06-22T03:42:03;13.32;;;11.95;;
10920;SDS011;5513;50.580;8.818;2023-06-22T03:44:33;12.60;;;11.40;;
10920;SDS011;5513;50.580;8.818;2023-06-22T03:47:02;12.52;;;11.25;;
10920;SDS011;5513;50.580;8.818;2023-06-22T03:49:33;13.68;;;12.25;;
10920;SDS011;5513;50.580;8.818;2023-06-22T03:52:07;13.40;;;11.45;;
10920;SDS011;5513;50.580;8.818;2023-06-22T03:54:37;13.30;;;11.98;;
10920;SDS011;5513;50.580;8.818;2023-06-22T03:57:07;16.98;;;12.77;;
10920;SDS011;5513;50.580;8.818;2023-06-22T03:59:35;12.45;;;11.20;;
10920;SDS011;5513;50.580;8.818;2023-06-22T04:02:04;12.85;;;11.65;;
10920;SDS011;5513;50.580;8.818;2023-06-22T04:04:32;13.05;;;11.73;;
10920;SDS011;5513;50.580;8.818;2023-06-22T04:07:02;14.65;;;12.32;;
10920;SDS011;5513;50.580;8.818;2023-06-22T04:09:32;12.15;;;10.93;;
10920;SDS011;5513;50.580;8.818;2023-06-22T04:12:01;14.27;;;12.20;;
10920;SDS011;5513;50.580;8.818;2023-06-22T04:14:30;13.75;;;12.23;;
10920;SDS011;5513;50.580;8.818;2023-06-22T04:16:59;13.25;;;11.85;;
10920;SDS011;5513;50.580;8.818;2023-06-22T04:19:27;12.87;;;11.57;;
10920;SDS011;5513;50.580;8.818;2023-06-22T04:21:55;13.70;;;12.33;;
10920;SDS011;5513;50.580;8.818;2023-06-22T04:24:24;13.70;;;12.35;;
10920;SDS011;5513;50.580;8.818;2023-06-22T04:26:54;12.47;;;11.23;;
10920;SDS011;5513;50.580;8.818;2023-06-22T04:29:22;16.87;;;12.07;;
10920;SDS011;5513;50.580;8.818;2023-06-22T04:31:56;13.87;;;12.07;;
10920;SDS011;5513;50.580;8.818;2023-06-22T04:34:30;13.82;;;12.30;;
10920;SDS011;5513;50.580;8.818;2023-06-22T04:36:59;15.73;;;12.90;;
10920;SDS011;5513;50.580;8.818;2023-06-22T04:39:27;13.07;;;11.60;;
10920;SDS011;5513;50.580;8.818;2023-06-22T04:41:57;13.83;;;12.47;;
10920;SDS011;5513;50.580;8.818;2023-06-22T04:44:27;13.07;;;11.87;;
10920;SDS011;5513;50.580;8.818;2023-06-22T04:46:58;12.87;;;11.57;;
10920;SDS011;5513;50.580;8.818;2023-06-22T04:49:29;12.90;;;11.60;;
10920;SDS011;5513;50.580;8.818;2023-06-22T04:52:03;13.97;;;12.10;;
10920;SDS011;5513;50.580;8.818;2023-06-22T04:54:34;12.87;;;11.67;;
10920;SDS011;5513;50.580;8.818;2023-06-22T04:57:06;13.30;;;11.50;;
10920;SDS011;5513;50.580;8.818;2023-06-22T04:59:37;13.90;;;11.43;;
10920;SDS011;5513;50.580;8.818;2023-06-22T05:02:08;13.57;;;11.60;;
10920;SDS011;5513;50.580;8.818;2023-06-22T05:04:38;12.43;;;11.20;;
10920;SDS011;5513;50.580;8.818;2023-06-22T05:07:09;13.70;;;12.40;;
10920;SDS011;5513;50.580;8.818;2023-06-22T05:09:38;13.88;;;12.43;;
10920;SDS011;5513;50.580;8.818;2023-06-22T05:12:09;12.60;;;11.38;;
10920;SDS011;5513;50.580;8.818;2023-06-22T05:14:38;13.35;;;12.07;;
10920;SDS011;5513;50.580;8.818;2023-06-22T05:17:06;12.32;;;11.18;;
10920;SDS011;5513;50.580;8.818;2023-06-22T05:19:43;13.35;;;11.98;;
10920;SDS011;5513;50.580;8.818;2023-06-22T05:22:13;13.98;;;11.73;;
10920;SDS011;5513;50.580;8.818;2023-06-22T05:24:43;13.60;;;12.20;;
10920;SDS011;5513;50.580;8.818;2023-06-22T05:27:13;13.25;;;11.85;;
10920;SDS011;5513;50.580;8.818;2023-06-22T05:29:42;12.70;;;11.40;;
10920;SDS011;5513;50.580;8.818;2023-06-22T05:32:10;15.27;;;11.40;;
10920;SDS011;5513;50.580;8.818;2023-06-22T05:34:39;12.13;;;10.85;;
10920;SDS011;5513;50.580;8.818;2023-06-22T05:37:07;16.08;;;11.90;;
10920;SDS011;5513;50.580;8.818;2023-06-22T05:39:37;16.00;;;12.13;;
10920;SDS011;5513;50.580;8.818;2023-06-22T05:42:05;12.35;;;11.05;;
10920;SDS011;5513;50.580;8.818;2023-06-22T05:44:38;12.35;;;11.10;;
10920;SDS011;5513;50.580;8.818;2023-06-22T05:47:07;13.10;;;11.70;;
10920;SDS011;5513;50.580;8.818;2023-06-22T05:49:35;12.38;;;11.18;;
10920;SDS011;5513;50.580;8.818;2023-06-22T05:52:04;12.52;;;11.23;;
10920;SDS011;5513;50.580;8.818;2023-06-22T05:54:32;13.95;;;11.95;;
10920;SDS011;5513;50.580;8.818;2023-06-22T05:57:00;12.05;;;10.82;;
10920;SDS011;5513;50.580;8.818;2023-06-22T05:59:29;11.95;;;10.65;;
10920;SDS011;5513;50.580;8.818;2023-06-22T06:01:59;12.65;;;11.25;;
10920;SDS011;5513;50.580;8.818;2023-06-22T06:04:27;12.48;;;11.15;;
10920;SDS011;5513;50.580;8.818;2023-06-22T06:06:56;12.48;;;10.35;;
10920;SDS011;5513;50.580;8.818;2023-06-22T06:09:26;11.80;;;10.60;;
10920;SDS011;5513;50.580;8.818;2023-06-22T06:11:54;10.98;;;9.88;;
10920;SDS011;5513;50.580;8.818;2023-06-22T06:14:22;11.82;;;10.63;;
10920;SDS011;5513;50.580;8.818;2023-06-22T06:16:50;11.52;;;10.43;;
10920;SDS011;5513;50.580;8.818;2023-06-22T06:19:20;12.13;;;10.82;;
10920;SDS011;5513;50.580;8.818;2023-06-22T06:21:48;11.80;;;10.60;;
10920;SDS011;5513;50.580;8.818;2023-06-22T06:24:17;11.65;;;10.18;;
10920;SDS011;5513;50.580;8.818;2023-06-22T06:26:45;11.05;;;9.77;;
10920;SDS011;5513;50.580;8.818;2023-06-22T06:29:14;11.98;;;10.18;;
10920;SDS011;5513;50.580;8.818;2023-06-22T06:31:44;11.52;;;10.32;;
10920;SDS011;5513;50.580;8.818;2023-06-22T06:34:13;12.95;;;10.30;;
10920;SDS011;5513;50.580;8.818;2023-06-22T06:36:44;11.00;;;9.85;;
10920;SDS011;5513;50.580;8.818;2023-06-22T06:39:12;11.90;;;10.32;;
10920;SDS011;5513;50.580;8.818;2023-06-22T06:41:40;11.40;;;9.65;;
10920;SDS011;5513;50.580;8.818;2023-06-22T06:44:09;11.02;;;9.88;;
10920;SDS011;5513;50.580;8.818;2023-06-22T06:46:37;11.02;;;9.45;;
10920;SDS011;5513;50.580;8.818;2023-06-22T06:49:06;10.75;;;9.43;;
10920;SDS011;5513;50.580;8.818;2023-06-22T06:51:34;11.05;;;9.98;;
10920;SDS011;5513;50.580;8.818;2023-06-22T06:54:05;11.27;;;9.60;;
10920;SDS011;5513;50.580;8.818;2023-06-22T06:56:35;14.35;;;10.25;;
10920;SDS011;5513;50.580;8.818;2023-06-22T06:59:03;10.43;;;9.32;;
10920;SDS011;5513;50.580;8.818;2023-06-22T07:01:32;11.05;;;8.75;;
10920;SDS011;5513;50.580;8.818;2023-06-22T07:04:02;10.20;;;8.93;;
10920;SDS011;5513;50.580;8.818;2023-06-22T07:06:31;10.88;;;8.93;;
10920;SDS011;5513;50.580;8.818;2023-06-22T07:09:01;11.38;;;9.48;;
10920;SDS011;5513;50.580;8.818;2023-06-22T07:11:33;9.90;;;8.90;;
10920;SDS011;5513;50.580;8.818;2023-06-22T07:14:02;9.82;;;8.88;;
10920;SDS011;5513;50.580;8.818;2023-06-22T07:16:30;10.90;;;8.80;;
10920;SDS011;5513;50.580;8.818;2023-06-22T07:18:59;9.15;;;8.25;;
10920;SDS011;5513;50.580;8.818;2023-06-22T07:21:27;9.52;;;8.07;;
10920;SDS011;5513;50.580;8.818;2023-06-22T07:23:56;10.85;;;9.50;;
10920;SDS011;5513;50.580;8.818;2023-06-22T07:26:24;10.98;;;8.98;;
10920;SDS011;5513;50.580;8.818;2023-06-22T07:28:54;11.98;;;8.32;;
10920;SDS011;5513;50.580;8.818;2023-06-22T07:31:23;12.30;;;9.35;;
10920;SDS011;5513;50.580;8.818;2023-06-22T07:33:52;13.77;;;9.25;;
10920;SDS011;5513;50.580;8.818;2023-06-22T07:36:20;12.25;;;9.88;;
10920;SDS011;5513;50.580;8.818;2023-06-22T07:38:48;10.38;;;9.38;;
10920;SDS011;5513;50.580;8.818;2023-06-22T07:41:17;9.63;;;8.70;;
10920;SDS011;5513;50.580;8.818;2023-06-22T07:43:46;9.52;;;8.63;;
10920;SDS011;5513;50.580;8.818;2023-06-22T07:46:16;10.30;;;9.18;;
10920;SDS011;5513;50.580;8.818;2023-06-22T07:48:44;12.00;;;8.63;;
10920;SDS011;5513;50.580;8.818;2023-06-22T07:51:12;9.57;;;8.55;;
10920;SDS011;5513;50.580;8.818;2023-06-22T07:53:41;10.60;;;8.88;;
10920;SDS011;5513;50.580;8.818;2023-06-22T07:56:10;11.05;;;8.95;;
10920;SDS011;5513;50.580;8.818;2023-06-22T07:58:40;9.90;;;8.38;;
10920;SDS011;5513;50.580;8.818;2023-06-22T08:01:08;9.50;;;8.30;;
10920;SDS011;5513;50.580;8.818;2023-06-22T08:03:44;9.20;;;8.30;;
10920;SDS011;5513;50.580;8.818;2023-06-22T08:06:12;9.40;;;8.18;;
10920;SDS011;5513;50.580;8.818;2023-06-22T08:08:41;8.88;;;7.97;;
10920;SDS011;5513;50.580;8.818;2023-06-22T08:11:14;9.32;;;8.00;;
10920;SDS011;5513;50.580;8.818;2023-06-22T08:13:42;8.82;;;8.00;;
10920;SDS011;5513;50.580;8.818;2023-06-22T08:16:11;9.63;;;8.07;;
10920;SDS011;5513;50.580;8.818;2023-06-22T08:18:41;9.00;;;7.95;;
10920;SDS011;5513;50.580;8.818;2023-06-22T08:21:11;8.80;;;7.90;;
10920;SDS011;5513;50.580;8.818;2023-06-22T08:23:39;9.70;;;8.70;;
10920;SDS011;5513;50.580;8.818;2023-06-22T08:26:08;10.68;;;7.93;;
10920;SDS011;5513;50.580;8.818;2023-06-22T08:28:37;14.63;;;11.57;;
10920;SDS011;5513;50.580;8.818;2023-06-22T08:31:05;11.77;;;8.02;;
10920;SDS011;5513;50.580;8.818;2023-06-22T08:33:33;8.88;;;7.97;;
10920;SDS011;5513;50.580;8.818;2023-06-22T08:36:04;10.52;;;8.88;;
10920;SDS011;5513;50.580;8.818;2023-06-22T08:38:33;8.63;;;7.70;;
10920;SDS011;5513;50.580;8.818;2023-06-22T08:41:01;9.05;;;7.80;;
10920;SDS011;5513;50.580;8.818;2023-06-22T08:43:29;9.05;;;7.90;;
10920;SDS011;5513;50.580;8.818;2023-06-22T08:45:57;9.90;;;8.90;;
10920;SDS011;5513;50.580;8.818;2023-06-22T08:48:26;17.65;;;16.02;;
10920;SDS011;5513;50.580;8.818;2023-06-22T08:50:54;10.18;;;9.25;;
10920;SDS011;5513;50.580;8.818;2023-06-22T08:53:25;9.63;;;8.63;;
10920;SDS011;5513;50.580;8.818;2023-06-22T08:55:54;9.13;;;8.23;;
10920;SDS011;5513;50.580;8.818;2023-06-22T08:58:22;8.25;;;7.50;;
10920;SDS011;5513;50.580;8.818;2023-06-22T09:00:51;9.23;;;8.32;;
10920;SDS011;5513;50.580;8.818;2023-06-22T09:03:20;10.55;;;8.45;;
10920;SDS011;5513;50.580;8.818;2023-06-22T09:05:48;8.32;;;7.63;;
10920;SDS011;5513;50.580;8.818;2023-06-22T09:08:16;9.35;;;8.27;;
10920;SDS011;5513;50.580;8.818;2023-06-22T09:10:47;10.02;;;8.98;;
10920;SDS011;5513;50.580;8.818;2023-06-22T09:13:16;8.85;;;7.97;;
10920;SDS011;5513;50.580;8.818;2023-06-22T09:15:44;9.75;;;8.60;;
10920;SDS011;5513;50.580;8.818;2023-06-22T09:18:13;9.05;;;8.05;;
10920;SDS011;5513;50.580;8.818;2023-06-22T09:20:41;9.35;;;8.55;;
10920;SDS011;5513;50.580;8.818;2023-06-22T09:23:10;9.73;;;8.77;;
10920;SDS011;5513;50.580;8.818;2023-06-22T09:25:38;8.82;;;8.05;;
10920;SDS011;5513;50.580;8.818;2023-06-22T09:28:09;9.18;;;8.07;;
10920;SDS011;5513;50.580;8.818;2023-06-22T09:30:37;9.50;;;8.60;;
10920;SDS011;5513;50.580;8.818;2023-06-22T09:33:05;8.75;;;7.95;;
10920;SDS011;5513;50.580;8.818;2023-06-22T09:35:34;10.38;;;8.75;;
10920;SDS011;5513;50.580;8.818;2023-06-22T09:38:02;9.68;;;8.70;;
10920;SDS011;5513;50.580;8.818;2023-06-22T09:40:30;9.35;;;8.45;;
10920;SDS011;5513;50.580;8.818;2023-06-22T09:43:03;8.70;;;7.95;;
10920;SDS011;5513;50.580;8.818;2023-06-22T09:45:33;9.43;;;8.32;;
10920;SDS011;5513;50.580;8.818;2023-06-22T09:48:02;9.15;;;7.90;;
10920;SDS011;5513;50.580;8.818;2023-06-22T09:50:30;8.23;;;7.53;;
10920;SDS011;5513;50.580;8.818;2023-06-22T09:52:59;8.57;;;7.78;;
10920;SDS011;5513;50.580;8.818;2023-06-22T09:55:27;9.02;;;7.60;;
10920;SDS011;5513;50.580;8.818;2023-06-22T09:57:56;9.88;;;7.93;;
10920;SDS011;5513;50.580;8.818;2023-06-22T10:00:24;8.60;;;7.80;;
10920;SDS011;5513;50.580;8.818;2023-06-22T10:02:55;7.85;;;7.20;;
10920;SDS011;5513;50.580;8.818;2023-06-22T10:05:26;8.57;;;7.78;;
10920;SDS011;5513;50.580;8.818;2023-06-22T10:07:55;9.77;;;7.75;;
10920;SDS011;5513;50.580;8.818;2023-06-22T10:10:24;9.35;;;7.60;;
10920;SDS011;5513;50.580;8.818;2023-06-22T10:12:54;8.98;;;8.18;;
10920;SDS011;5513;50.580;8.818;2023-06-22T10:15:24;7.95;;;7.25;;
10920;SDS011;5513;50.580;8.818;2023-06-22T10:17:55;8.70;;;7.90;;
10920;SDS011;5513;50.580;8.818;2023-06-22T10:20:24;9.63;;;8.10;;
10920;SDS011;5513;50.580;8.818;2023-06-22T10:22:53;8.82;;;7.93;;
10920;SDS011;5513;50.580;8.818;2023-06-22T10:25:26;8.25;;;7.45;;
10920;SDS011;5513;50.580;8.818;2023-06-22T10:27:55;8.57;;;7.68;;
10920;SDS011;5513;50.580;8.818;2023-06-22T10:30:24;8.85;;;7.93;;
10920;SDS011;5513;50.580;8.818;2023-06-22T10:32:52;8.77;;;7.55;;
10920;SDS011;5513;50.580;8.818;2023-06-22T10:35:22;8.15;;;7.20;;
10920;SDS011;5513;50.580;8.818;2023-06-22T10:37:50;9.18;;;6.95;;
10920;SDS011;5513;50.580;8.818;2023-06-22T10:40:19;7.93;;;7.13;;
10920;SDS011;5513;50.580;8.818;2023-06-22T10:42:47;7.05;;;6.43;;
10920;SDS011;5513;50.580;8.818;2023-06-22T10:45:16;7.57;;;6.78;;
10920;SDS011;5513;50.580;8.818;2023-06-22T10:47:45;7.53;;;6.90;;
10920;SDS011;5513;50.580;8.818;2023-06-22T10:50:13;8.57;;;6.82;;
10920;SDS011;5513;50.580;8.818;2023-06-22T10:52:43;7.13;;;6.35;;
10920;SDS011;5513;50.580;8.818;2023-06-22T10:55:11;6.80;;;6.10;;
10920;SDS011;5513;50.580;8.818;2023-06-22T10:57:40;6.93;;;6.25;;
10920;SDS011;5513;50.580;8.818;2023-06-22T11:00:12;10.27;;;6.65;;
10920;SDS011;5513;50.580;8.818;2023-06-22T11:02:42;6.80;;;6.15;;
10920;SDS011;5513;50.580;8.818;2023-06-22T11:05:11;6.57;;;5.97;;
10920;SDS011;5513;50.580;8.818;2023-06-22T11:07:41;6.50;;;5.80;;
10920;SDS011;5513;50.580;8.818;2023-06-22T11:10:12;6.53;;;6.03;;
10920;SDS011;5513;50.580;8.818;2023-06-22T11:12:40;9.27;;;6.35;;
10920;SDS011;5513;50.580;8.818;2023-06-22T11:15:09;9.18;;;6.63;;
10920;SDS011;5513;50.580;8.818;2023-06-22T11:17:38;7.03;;;5.57;;
10920;SDS011;5513;50.580;8.818;2023-06-22T11:20:07;7.50;;;6.32;;
10920;SDS011;5513;50.580;8.818;2023-06-22T11:22:38;9.18;;;6.60;;
10920;SDS011;5513;50.580;8.818;2023-06-22T11:25:07;7.13;;;6.43;;
10920;SDS011;5513;50.580;8.818;2023-06-22T11:27:39;6.50;;;5.90;;
10920;SDS011;5513;50.580;8.818;2023-06-22T11:30:08;6.85;;;5.93;;
10920;SDS011;5513;50.580;8.818;2023-06-22T11:32:37;6.28;;;5.78;;
10920;SDS011;5513;50.580;8.818;2023-06-22T11:35:06;8.60;;;6.30;;
10920;SDS011;5513;50.580;8.818;2023-06-22T11:37:35;6.32;;;5.75;;
10920;SDS011;5513;50.580;8.818;2023-06-22T11:40:04;6.00;;;5.50;;
10920;SDS011;5513;50.580;8.818;2023-06-22T11:42:35;7.13;;;5.90;;
10920;SDS011;5513;50.580;8.818;2023-06-22T11:45:06;7.35;;;5.80;;
10920;SDS011;5513;50.580;8.818;2023-06-22T11:47:35;6.80;;;5.45;;
10920;SDS011;5513;50.580;8.818;2023-06-22T11:50:04;5.68;;;5.03;;
10920;SDS011;5513;50.580;8.818;2023-06-22T11:52:33;6.68;;;5.25;;
10920;SDS011;5513;50.580;8.818;2023-06-22T11:55:04;6.05;;;5.30;;
10920;SDS011;5513;50.580;8.818;2023-06-22T11:57:34;6.07;;;5.47;;
10920;SDS011;5513;50.580;8.818;2023-06-22T12:00:05;5.43;;;4.80;;
10920;SDS011;5513;50.580;8.818;2023-06-22T12:02:42;7.60;;;5.15;;
10920;SDS011;5513;50.580;8.818;2023-06-22T12:05:11;5.25;;;4.75;;
10920;SDS011;5513;50.580;8.818;2023-06-22T12:07:40;6.28;;;5.10;;
10920;SDS011;5513;50.580;8.818;2023-06-22T12:10:09;6.10;;;4.95;;
10920;SDS011;5513;50.580;8.818;2023-06-22T12:12:38;5.70;;;5.13;;
10920;SDS011;5513;50.580;8.818;2023-06-22T12:15:08;5.72;;;4.95;;
10920;SDS011;5513;50.580;8.818;2023-06-22T12:17:37;6.85;;;4.15;;
10920;SDS011;5513;50.580;8.818;2023-06-22T12:20:06;7.03;;;4.82;;
10920;SDS011;5513;50.580;8.818;2023-06-22T12:22:35;7.50;;;5.50;;
10920;SDS011;5513;50.580;8.818;2023-06-22T12:25:05;6.40;;;5.70;;
10920;SDS011;5513;50.580;8.818;2023-06-22T12:27:34;6.15;;;5.13;;
10920;SDS011;5513;50.580;8.818;2023-06-22T12:30:03;6.72;;;5.60;;
10920;SDS011;5513;50.580;8.818;2023-06-22T12:32:33;8.52;;;5.57;;
10920;SDS011;5513;50.580;8.818;2023-06-22T12:35:02;7.28;;;5.22;;
10920;SDS011;5513;50.580;8.818;2023-06-22T12:37:30;5.72;;;5.22;;
10920;SDS011;5513;50.580;8.818;2023-06-22T12:40:00;6.22;;;5.47;;
10920;SDS011;5513;50.580;8.818;2023-06-22T12:42:30;6.95;;;5.30;;
10920;SDS011;5513;50.580;8.818;2023-06-22T12:44:58;6.88;;;5.78;;
10920;SDS011;5513;50.580;8.818;2023-06-22T12:47:26;8.65;;;5.60;;
10920;SDS011;5513;50.580;8.818;2023-06-22T12:49:56;6.47;;;5.55;;
10920;SDS011;5513;50.580;8.818;2023-06-22T12:52:26;6.95;;;5.75;;
10920;SDS011;5513;50.580;8.818;2023-06-22T12:54:54;7.32;;;5.80;;
10920;SDS011;5513;50.580;8.818;2023-06-22T12:57:22;10.27;;;5.68;;
10920;SDS011;5513;50.580;8.818;2023-06-22T12:59:52;11.73;;;5.70;;
10920;SDS011;5513;50.580;8.818;2023-06-22T13:02:20;9.63;;;6.40;;
10920;SDS011;5513;50.580;8.818;2023-06-22T13:04:49;8.45;;;5.88;;
10920;SDS011;5513;50.580;8.818;2023-06-22T13:07:19;8.60;;;6.40;;
10920;SDS011;5513;50.580;8.818;2023-06-22T13:09:49;8.95;;;6.30;;
10920;SDS011;5513;50.580;8.818;2023-06-22T13:12:19;9.20;;;5.93;;
10920;SDS011;5513;50.580;8.818;2023-06-22T13:14:48;9.30;;;6.30;;
10920;SDS011;5513;50.580;8.818;2023-06-22T13:17:16;9.88;;;6.50;;
10920;SDS011;5513;50.580;8.818;2023-06-22T13:19:45;9.82;;;7.20;;
10920;SDS011;5513;50.580;8.818;2023-06-22T13:22:27;7.10;;;6.22;;
10920;SDS011;5513;50.580;8.818;2023-06-22T13:24:57;8.00;;;6.38;;
10920;SDS011;5513;50.580;8.818;2023-06-22T13:27:26;8.35;;;6.75;;
10920;SDS011;5513;50.580;8.818;2023-06-22T13:29:55;11.55;;;6.35;;
10920;SDS011;5513;50.580;8.818;2023-06-22T13:32:23;11.27;;;6.78;;
10920;SDS011;5513;50.580;8.818;2023-06-22T13:34:52;9.88;;;6.63;;
10920;SDS011;5513;50.580;8.818;2023-06-22T13:37:22;9.38;;;7.10;;
10920;SDS011;5513;50.580;8.818;2023-06-22T13:39:54;14.27;;;7.00;;
10920;SDS011;5513;50.580;8.818;2023-06-22T13:42:26;12.80;;;6.47;;
10920;SDS011;5513;50.580;8.818;2023-06-22T13:44:54;9.95;;;6.95;;
10920;SDS011;5513;50.580;8.818;2023-06-22T13:47:22;11.48;;;6.78;;
10920;SDS011;5513;50.580;8.818;2023-06-22T13:49:50;11.57;;;6.97;;
10920;SDS011;5513;50.580;8.818;2023-06-22T13:52:18;9.88;;;6.65;;
10920;SDS011;5513;50.580;8.818;2023-06-22T13:54:47;8.73;;;7.05;;
10920;SDS011;5513;50.580;8.818;2023-06-22T13:57:17;9.32;;;6.88;;
10920;SDS011;5513;50.580;8.818;2023-06-22T13:59:45;8.98;;;6.53;;
10920;SDS011;5513;50.580;8.818;2023-06-22T14:02:13;12.75;;;7.15;;
10920;SDS011;5513;50.580;8.818;2023-06-22T14:04:42;11.07;;;7.28;;
10920;SDS011;5513;50.580;8.818;2023-06-22T14:07:10;11.63;;;7.60;;
10920;SDS011;5513;50.580;8.818;2023-06-22T14:09:41;9.85;;;6.90;;
10920;SDS011;5513;50.580;8.818;2023-06-22T14:12:10;7.88;;;6.65;;
10920;SDS011;5513;50.580;8.818;2023-06-22T14:14:40;11.10;;;7.22;;
10920;SDS011;5513;50.580;8.818;2023-06-22T14:17:10;11.82;;;7.20;;
10920;SDS011;5513;50.580;8.818;2023-06-22T14:19:38;10.63;;;7.85;;
10920;SDS011;5513;50.580;8.818;2023-06-22T14:22:07;12.63;;;7.22;;
10920;SDS011;5513;50.580;8.818;2023-06-22T14:24:35;11.45;;;8.02;;
10920;SDS011;5513;50.580;8.818;2023-06-22T14:27:04;11.48;;;7.78;;
10920;SDS011;5513;50.580;8.818;2023-06-22T14:29:35;10.48;;;7.55;;
10920;SDS011;5513;50.580;8.818;2023-06-22T14:32:05;13.52;;;8.15;;
10920;SDS011;5513;50.580;8.818;2023-06-22T14:34:35;12.05;;;7.70;;
10920;SDS011;5513;50.580;8.818;2023-06-22T14:37:06;12.30;;;8.52;;
10920;SDS011;5513;50.580;8.818;2023-06-22T14:39:36;12.25;;;7.63;;
10920;SDS011;5513;50.580;8.818;2023-06-22T14:42:04;13.88;;;8.05;;
10920;SDS011;5513;50.580;8.818;2023-06-22T14:44:33;10.35;;;7.70;;
10920;SDS011;5513;50.580;8.818;2023-06-22T14:47:01;13.57;;;7.88;;
10920;SDS011;5513;50.580;8.818;2023-06-22T14:49:31;13.18;;;8.15;;
10920;SDS011;5513;50.580;8.818;2023-06-22T14:51:59;10.98;;;8.10;;
10920;SDS011;5513;50.580;8.818;2023-06-22T14:54:28;9.82;;;7.85;;
10920;SDS011;5513;50.580;8.818;2023-06-22T14:56:56;11.40;;;8.35;;
10920;SDS011;5513;50.580;8.818;2023-06-22T14:59:24;12.43;;;7.53;;
10920;SDS011;5513;50.580;8.818;2023-06-22T15:01:52;14.02;;;8.25;;
10920;SDS011;5513;50.580;8.818;2023-06-22T15:04:21;11.00;;;7.90;;